sensor_id;sensor_type;location;lat;lon;timestamp;P1;durP1;ratioP1;P2;durP2;ratioP2
27213;SDS011;14723;55.814;37.460;2022-07-10T00:00:13;14.20;;;10.20;;
27213;SDS011;14723;55.814;37.460;2022-07-10T00:03:19;14.52;;;10.80;;
27213;SDS011;14723;55.814;37.460;2022-07-10T00:06:25;15.05;;;10.50;;
27213;SDS011;14723;55.814;37.460;2022-07-10T00:09:33;15.60;;;10.07;;
27213;SDS011;14723;55.814;37.460;2022-07-10T00:12:38;15.50;;;9.90;;
27213;SDS011;14723;55.814;37.460;2022-07-10T00:15:44;14.02;;;10.55;;
27213;SDS011;14723;55.814;37.460;2022-07-10T00:18:49;16.35;;;10.82;;
27213;SDS011;14723;55.814;37.460;2022-07-10T00:21:55;16.42;;;10.48;;
27213;SDS011;14723;55.814;37.460;2022-07-10T00:25:03;15.63;;;10.60;;
27213;SDS011;14723;55.814;37.460;2022-07-10T00:28:08;16.48;;;11.43;;
27213;SDS011;14723;55.814;37.460;2022-07-10T00:31:13;14.02;;;10.35;;
27213;SDS011;14723;55.814;37.460;2022-07-10T00:34:19;13.32;;;9.85;;
27213;SDS011;14723;55.814;37.460;2022-07-10T00:37:24;16.13;;;10.40;;
27213;SDS011;14723;55.814;37.460;2022-07-10T00:40:32;15.95;;;11.05;;
27213;SDS011;14723;55.814;37.460;2022-07-10T00:47:04;15.25;;;10.57;;
27213;SDS011;14723;55.814;37.460;2022-07-10T00:50:09;12.30;;;10.32;;
27213;SDS011;14723;55.814;37.460;2022-07-10T00:53:14;14.27;;;10.65;;
27213;SDS011;14723;55.814;37.460;2022-07-10T00:56:23;14.07;;;11.48;;
27213;SDS011;14723;55.814;37.460;2022-07-10T00:59:29;18.67;;;11.05;;
27213;SDS011;14723;55.814;37.460;2022-07-10T01:02:34;13.18;;;11.30;;
27213;SDS011;14723;55.814;37.460;2022-07-10T01:05:40;15.32;;;11.63;;
27213;SDS011;14723;55.814;37.460;2022-07-10T01:08:45;14.23;;;11.85;;
27213;SDS011;14723;55.814;37.460;2022-07-10T01:11:53;13.80;;;11.80;;
27213;SDS011;14723;55.814;37.460;2022-07-10T01:14:58;14.05;;;11.88;;
27213;SDS011;14723;55.814;37.460;2022-07-10T01:18:04;12.45;;;11.13;;
27213;SDS011;14723;55.814;37.460;2022-07-10T01:24:32;15.57;;;12.27;;
27213;SDS011;14723;55.814;37.460;2022-07-10T01:27:37;16.67;;;12.52;;
27213;SDS011;14723;55.814;37.460;2022-07-10T01:30:43;15.07;;;11.85;;
27213;SDS011;14723;55.814;37.460;2022-07-10T01:33:48;15.75;;;12.27;;
27213;SDS011;14723;55.814;37.460;2022-07-10T01:36:53;15.15;;;12.25;;
27213;SDS011;14723;55.814;37.460;2022-07-10T01:40:01;15.45;;;11.63;;
27213;SDS011;14723;55.814;37.460;2022-07-10T01:43:06;14.30;;;12.15;;
27213;SDS011;14723;55.814;37.460;2022-07-10T01:46:11;15.32;;;12.70;;
27213;SDS011;14723;55.814;37.460;2022-07-10T01:49:17;17.63;;;12.75;;
27213;SDS011;14723;55.814;37.460;2022-07-10T01:52:22;15.25;;;12.88;;
27213;SDS011;14723;55.814;37.460;2022-07-10T01:55:30;20.35;;;12.02;;
27213;SDS011;14723;55.814;37.460;2022-07-10T01:58:35;16.75;;;11.98;;
27213;SDS011;14723;55.814;37.460;2022-07-10T02:01:41;13.23;;;11.68;;
27213;SDS011;14723;55.814;37.460;2022-07-10T02:04:46;14.45;;;11.48;;
27213;SDS011;14723;55.814;37.460;2022-07-10T02:07:49;16.88;;;10.98;;
27213;SDS011;14723;55.814;37.460;2022-07-10T02:10:56;17.55;;;12.55;;
27213;SDS011;14723;55.814;37.460;2022-07-10T02:14:02;17.63;;;12.60;;
27213;SDS011;14723;55.814;37.460;2022-07-10T02:17:07;24.20;;;12.27;;
27213;SDS011;14723;55.814;37.460;2022-07-10T02:20:13;19.77;;;11.68;;
27213;SDS011;14723;55.814;37.460;2022-07-10T02:23:18;16.65;;;11.75;;
27213;SDS011;14723;55.814;37.460;2022-07-10T02:26:26;15.32;;;11.98;;
27213;SDS011;14723;55.814;37.460;2022-07-10T02:29:31;14.15;;;10.55;;
27213;SDS011;14723;55.814;37.460;2022-07-10T02:32:36;14.82;;;11.63;;
27213;SDS011;14723;55.814;37.460;2022-07-10T02:35:42;15.05;;;11.18;;
27213;SDS011;14723;55.814;37.460;2022-07-10T02:38:47;14.73;;;10.90;;
27213;SDS011;14723;55.814;37.460;2022-07-10T02:41:55;13.50;;;10.68;;
27213;SDS011;14723;55.814;37.460;2022-07-10T02:45:01;10.90;;;9.75;;
27213;SDS011;14723;55.814;37.460;2022-07-10T02:48:06;14.20;;;10.15;;
27213;SDS011;14723;55.814;37.460;2022-07-10T02:51:11;13.90;;;10.90;;
27213;SDS011;14723;55.814;37.460;2022-07-10T02:54:16;15.88;;;9.95;;
27213;SDS011;14723;55.814;37.460;2022-07-10T02:57:24;11.07;;;9.70;;
27213;SDS011;14723;55.814;37.460;2022-07-10T03:00:30;13.00;;;9.23;;
27213;SDS011;14723;55.814;37.460;2022-07-10T03:03:35;11.98;;;9.63;;
27213;SDS011;14723;55.814;37.460;2022-07-10T03:06:40;9.13;;;8.00;;
27213;SDS011;14723;55.814;37.460;2022-07-10T03:09:46;12.73;;;8.70;;
27213;SDS011;14723;55.814;37.460;2022-07-10T03:12:54;12.57;;;7.68;;
27213;SDS011;14723;55.814;37.460;2022-07-10T03:15:59;10.25;;;8.10;;
27213;SDS011;14723;55.814;37.460;2022-07-10T03:19:04;10.65;;;8.70;;
27213;SDS011;14723;55.814;37.460;2022-07-10T03:22:10;10.13;;;7.60;;
27213;SDS011;14723;55.814;37.460;2022-07-10T03:25:15;9.80;;;7.10;;
27213;SDS011;14723;55.814;37.460;2022-07-10T03:28:23;10.25;;;7.22;;
27213;SDS011;14723;55.814;37.460;2022-07-10T03:31:28;9.27;;;6.95;;
27213;SDS011;14723;55.814;37.460;2022-07-10T03:34:34;9.43;;;7.47;;
27213;SDS011;14723;55.814;37.460;2022-07-10T03:37:39;7.95;;;6.50;;
27213;SDS011;14723;55.814;37.460;2022-07-10T03:40:44;10.00;;;7.13;;
27213;SDS011;14723;55.814;37.460;2022-07-10T03:43:53;7.63;;;6.80;;
27213;SDS011;14723;55.814;37.460;2022-07-10T03:46:59;13.25;;;7.50;;
27213;SDS011;14723;55.814;37.460;2022-07-10T03:50:05;8.45;;;6.93;;
27213;SDS011;14723;55.814;37.460;2022-07-10T03:53:10;9.50;;;7.25;;
27213;SDS011;14723;55.814;37.460;2022-07-10T03:56:15;8.40;;;6.85;;
27213;SDS011;14723;55.814;37.460;2022-07-10T03:59:35;9.02;;;6.88;;
27213;SDS011;14723;55.814;37.460;2022-07-10T04:02:40;9.05;;;6.78;;
27213;SDS011;14723;55.814;37.460;2022-07-10T04:05:46;11.73;;;7.28;;
27213;SDS011;14723;55.814;37.460;2022-07-10T04:08:51;10.38;;;7.57;;
27213;SDS011;14723;55.814;37.460;2022-07-10T04:11:56;8.90;;;7.47;;
27213;SDS011;14723;55.814;37.460;2022-07-10T04:15:04;9.23;;;8.10;;
27213;SDS011;14723;55.814;37.460;2022-07-10T04:18:10;11.20;;;7.25;;
27213;SDS011;14723;55.814;37.460;2022-07-10T04:21:15;14.80;;;7.88;;
27213;SDS011;14723;55.814;37.460;2022-07-10T04:24:20;9.75;;;7.28;;
27213;SDS011;14723;55.814;37.460;2022-07-10T04:27:25;12.07;;;6.43;;
27213;SDS011;14723;55.814;37.460;2022-07-10T04:30:33;8.23;;;6.32;;
27213;SDS011;14723;55.814;37.460;2022-07-10T04:33:38;9.88;;;7.90;;
27213;SDS011;14723;55.814;37.460;2022-07-10T04:36:44;11.30;;;6.82;;
27213;SDS011;14723;55.814;37.460;2022-07-10T04:39:49;13.02;;;7.32;;
27213;SDS011;14723;55.814;37.460;2022-07-10T04:43:00;12.80;;;7.43;;
27213;SDS011;14723;55.814;37.460;2022-07-10T04:46:07;12.85;;;8.05;;
27213;SDS011;14723;55.814;37.460;2022-07-10T04:49:13;11.30;;;7.65;;
27213;SDS011;14723;55.814;37.460;2022-07-10T04:52:18;10.48;;;7.20;;
27213;SDS011;14723;55.814;37.460;2022-07-10T04:55:23;9.55;;;6.80;;
27213;SDS011;14723;55.814;37.460;2022-07-10T04:58:29;12.85;;;7.43;;
27213;SDS011;14723;55.814;37.460;2022-07-10T05:01:37;14.20;;;7.00;;
27213;SDS011;14723;55.814;37.460;2022-07-10T05:04:42;14.85;;;6.72;;
27213;SDS011;14723;55.814;37.460;2022-07-10T05:07:47;9.48;;;6.78;;
27213;SDS011;14723;55.814;37.460;2022-07-10T05:10:52;9.90;;;6.65;;
27213;SDS011;14723;55.814;37.460;2022-07-10T05:13:57;8.70;;;6.53;;
27213;SDS011;14723;55.814;37.460;2022-07-10T05:17:05;9.00;;;6.03;;
27213;SDS011;14723;55.814;37.460;2022-07-10T05:20:11;13.40;;;7.18;;
27213;SDS011;14723;55.814;37.460;2022-07-10T05:23:16;8.52;;;6.93;;
27213;SDS011;14723;55.814;37.460;2022-07-10T05:26:22;10.90;;;6.78;;
27213;SDS011;14723;55.814;37.460;2022-07-10T05:29:27;16.23;;;6.88;;
27213;SDS011;14723;55.814;37.460;2022-07-10T05:32:36;12.52;;;7.38;;
27213;SDS011;14723;55.814;37.460;2022-07-10T05:35:46;8.57;;;6.68;;
27213;SDS011;14723;55.814;37.460;2022-07-10T05:38:51;8.95;;;7.10;;
27213;SDS011;14723;55.814;37.460;2022-07-10T05:41:56;8.45;;;6.65;;
27213;SDS011;14723;55.814;37.460;2022-07-10T05:45:02;9.32;;;7.03;;
27213;SDS011;14723;55.814;37.460;2022-07-10T05:48:10;10.20;;;7.28;;
27213;SDS011;14723;55.814;37.460;2022-07-10T05:51:15;9.32;;;7.25;;
27213;SDS011;14723;55.814;37.460;2022-07-10T05:54:33;8.20;;;6.97;;
27213;SDS011;14723;55.814;37.460;2022-07-10T05:57:38;10.82;;;8.23;;
27213;SDS011;14723;55.814;37.460;2022-07-10T06:00:44;10.68;;;7.82;;
27213;SDS011;14723;55.814;37.460;2022-07-10T06:03:54;9.60;;;7.63;;
27213;SDS011;14723;55.814;37.460;2022-07-10T06:06:59;10.60;;;7.22;;
27213;SDS011;14723;55.814;37.460;2022-07-10T06:10:05;9.90;;;7.30;;
27213;SDS011;14723;55.814;37.460;2022-07-10T06:13:11;9.10;;;7.00;;
27213;SDS011;14723;55.814;37.460;2022-07-10T06:16:17;14.15;;;7.65;;
27213;SDS011;14723;55.814;37.460;2022-07-10T06:19:25;12.15;;;8.30;;
27213;SDS011;14723;55.814;37.460;2022-07-10T06:22:30;12.63;;;7.85;;
27213;SDS011;14723;55.814;37.460;2022-07-10T06:25:36;12.07;;;7.30;;
27213;SDS011;14723;55.814;37.460;2022-07-10T06:28:41;10.52;;;8.07;;
27213;SDS011;14723;55.814;37.460;2022-07-10T06:31:46;9.57;;;7.97;;
27213;SDS011;14723;55.814;37.460;2022-07-10T06:34:55;13.05;;;8.13;;
27213;SDS011;14723;55.814;37.460;2022-07-10T06:38:00;14.90;;;8.15;;
27213;SDS011;14723;55.814;37.460;2022-07-10T06:41:05;20.20;;;14.40;;
27213;SDS011;14723;55.814;37.460;2022-07-10T06:44:11;11.00;;;8.43;;
27213;SDS011;14723;55.814;37.460;2022-07-10T06:47:17;20.60;;;10.05;;
27213;SDS011;14723;55.814;37.460;2022-07-10T06:50:38;10.77;;;9.10;;
27213;SDS011;14723;55.814;37.460;2022-07-10T06:53:43;18.77;;;9.07;;
27213;SDS011;14723;55.814;37.460;2022-07-10T06:56:48;12.27;;;8.55;;
27213;SDS011;14723;55.814;37.460;2022-07-10T06:59:54;10.43;;;8.50;;
27213;SDS011;14723;55.814;37.460;2022-07-10T07:02:59;11.95;;;8.05;;
27213;SDS011;14723;55.814;37.460;2022-07-10T07:06:07;12.10;;;8.25;;
27213;SDS011;14723;55.814;37.460;2022-07-10T07:12:17;14.30;;;10.15;;
27213;SDS011;14723;55.814;37.460;2022-07-10T07:15:23;11.73;;;8.95;;
27213;SDS011;14723;55.814;37.460;2022-07-10T07:18:28;15.10;;;9.23;;
27213;SDS011;14723;55.814;37.460;2022-07-10T07:21:42;16.05;;;9.07;;
27213;SDS011;14723;55.814;37.460;2022-07-10T07:25:00;16.30;;;9.35;;
27213;SDS011;14723;55.814;37.460;2022-07-10T07:28:05;12.00;;;9.60;;
27213;SDS011;14723;55.814;37.460;2022-07-10T07:31:10;12.77;;;8.27;;
27213;SDS011;14723;55.814;37.460;2022-07-10T07:34:16;12.35;;;7.40;;
27213;SDS011;14723;55.814;37.460;2022-07-10T07:37:25;9.18;;;7.30;;
27213;SDS011;14723;55.814;37.460;2022-07-10T07:40:39;8.52;;;7.72;;
27213;SDS011;14723;55.814;37.460;2022-07-10T07:43:44;9.90;;;7.57;;
27213;SDS011;14723;55.814;37.460;2022-07-10T07:46:49;12.52;;;9.25;;
27213;SDS011;14723;55.814;37.460;2022-07-10T07:49:54;11.65;;;8.02;;
27213;SDS011;14723;55.814;37.460;2022-07-10T07:53:03;11.43;;;8.27;;
27213;SDS011;14723;55.814;37.460;2022-07-10T07:56:08;8.57;;;7.75;;
27213;SDS011;14723;55.814;37.460;2022-07-10T07:59:13;12.48;;;7.53;;
27213;SDS011;14723;55.814;37.460;2022-07-10T08:02:19;8.90;;;7.90;;
27213;SDS011;14723;55.814;37.460;2022-07-10T08:05:24;11.20;;;7.13;;
27213;SDS011;14723;55.814;37.460;2022-07-10T08:08:32;9.70;;;8.25;;
27213;SDS011;14723;55.814;37.460;2022-07-10T08:11:38;9.57;;;7.68;;
27213;SDS011;14723;55.814;37.460;2022-07-10T08:14:44;12.32;;;8.98;;
27213;SDS011;14723;55.814;37.460;2022-07-10T08:17:50;13.27;;;8.73;;
27213;SDS011;14723;55.814;37.460;2022-07-10T08:20:56;14.02;;;8.73;;
27213;SDS011;14723;55.814;37.460;2022-07-10T08:24:04;10.77;;;8.35;;
27213;SDS011;14723;55.814;37.460;2022-07-10T08:27:10;9.88;;;8.90;;
27213;SDS011;14723;55.814;37.460;2022-07-10T08:30:18;12.40;;;10.60;;
27213;SDS011;14723;55.814;37.460;2022-07-10T08:33:23;12.32;;;10.15;;
27213;SDS011;14723;55.814;37.460;2022-07-10T08:36:29;15.25;;;10.05;;
27213;SDS011;14723;55.814;37.460;2022-07-10T08:39:48;16.08;;;10.38;;
27213;SDS011;14723;55.814;37.460;2022-07-10T08:42:54;15.25;;;9.93;;
27213;SDS011;14723;55.814;37.460;2022-07-10T08:45:59;15.15;;;9.80;;
27213;SDS011;14723;55.814;37.460;2022-07-10T08:49:05;16.60;;;9.73;;
27213;SDS011;14723;55.814;37.460;2022-07-10T08:52:16;11.52;;;9.10;;
27213;SDS011;14723;55.814;37.460;2022-07-10T08:55:29;11.45;;;8.80;;
27213;SDS011;14723;55.814;37.460;2022-07-10T08:58:35;12.30;;;8.85;;
27213;SDS011;14723;55.814;37.460;2022-07-10T09:01:40;12.25;;;9.73;;
27213;SDS011;14723;55.814;37.460;2022-07-10T09:04:46;14.57;;;9.43;;
27213;SDS011;14723;55.814;37.460;2022-07-10T09:07:51;16.55;;;10.38;;
27213;SDS011;14723;55.814;37.460;2022-07-10T09:14:19;10.85;;;9.07;;
27213;SDS011;14723;55.814;37.460;2022-07-10T09:17:48;10.43;;;8.75;;
27213;SDS011;14723;55.814;37.460;2022-07-10T09:20:53;11.82;;;9.15;;
27213;SDS011;14723;55.814;37.460;2022-07-10T09:23:59;12.32;;;8.93;;
27213;SDS011;14723;55.814;37.460;2022-07-10T09:27:09;14.00;;;8.93;;
27213;SDS011;14723;55.814;37.460;2022-07-10T09:30:20;11.95;;;9.32;;
27213;SDS011;14723;55.814;37.460;2022-07-10T09:33:36;11.05;;;9.63;;
27213;SDS011;14723;55.814;37.460;2022-07-10T09:36:41;12.95;;;8.77;;
27213;SDS011;14723;55.814;37.460;2022-07-10T09:39:53;11.80;;;8.40;;
27213;SDS011;14723;55.814;37.460;2022-07-10T09:42:58;8.20;;;6.82;;
27213;SDS011;14723;55.814;37.460;2022-07-10T09:46:08;11.85;;;10.15;;
27213;SDS011;14723;55.814;37.460;2022-07-10T09:49:13;13.82;;;8.43;;
27213;SDS011;14723;55.814;37.460;2022-07-10T09:52:19;12.00;;;7.70;;
27213;SDS011;14723;55.814;37.460;2022-07-10T09:55:25;10.80;;;7.65;;
27213;SDS011;14723;55.814;37.460;2022-07-10T09:58:32;7.35;;;6.13;;
27213;SDS011;14723;55.814;37.460;2022-07-10T10:01:44;8.55;;;6.40;;
27213;SDS011;14723;55.814;37.460;2022-07-10T10:04:52;10.55;;;6.18;;
27213;SDS011;14723;55.814;37.460;2022-07-10T10:07:58;9.30;;;5.63;;
27213;SDS011;14723;55.814;37.460;2022-07-10T10:11:05;7.72;;;6.10;;
27213;SDS011;14723;55.814;37.460;2022-07-10T10:14:16;7.80;;;5.40;;
27213;SDS011;14723;55.814;37.460;2022-07-10T10:17:26;8.93;;;5.30;;
27213;SDS011;14723;55.814;37.460;2022-07-10T10:20:32;10.82;;;5.38;;
27213;SDS011;14723;55.814;37.460;2022-07-10T10:23:43;7.45;;;5.63;;
27213;SDS011;14723;55.814;37.460;2022-07-10T10:26:49;23.10;;;20.05;;
27213;SDS011;14723;55.814;37.460;2022-07-10T10:29:54;11.27;;;7.32;;
27213;SDS011;14723;55.814;37.460;2022-07-10T10:33:02;7.85;;;6.00;;
27213;SDS011;14723;55.814;37.460;2022-07-10T10:36:08;6.50;;;5.88;;
27213;SDS011;14723;55.814;37.460;2022-07-10T10:39:14;7.65;;;5.90;;
27213;SDS011;14723;55.814;37.460;2022-07-10T10:42:34;11.30;;;5.63;;
27213;SDS011;14723;55.814;37.460;2022-07-10T10:45:39;9.23;;;6.18;;
27213;SDS011;14723;55.814;37.460;2022-07-10T10:48:49;18.67;;;8.43;;
27213;SDS011;14723;55.814;37.460;2022-07-10T10:52:09;6.18;;;5.57;;
27213;SDS011;14723;55.814;37.460;2022-07-10T10:55:17;5.55;;;4.75;;
27213;SDS011;14723;55.814;37.460;2022-07-10T10:58:23;6.15;;;5.15;;
27213;SDS011;14723;55.814;37.460;2022-07-10T11:01:29;7.53;;;4.80;;
27213;SDS011;14723;55.814;37.460;2022-07-10T11:04:37;12.38;;;5.07;;
27213;SDS011;14723;55.814;37.460;2022-07-10T11:07:50;5.72;;;4.85;;
27213;SDS011;14723;55.814;37.460;2022-07-10T11:10:56;8.27;;;4.88;;
27213;SDS011;14723;55.814;37.460;2022-07-10T11:14:01;8.45;;;5.18;;
27213;SDS011;14723;55.814;37.460;2022-07-10T11:17:08;7.82;;;4.22;;
27213;SDS011;14723;55.814;37.460;2022-07-10T11:20:16;9.20;;;4.72;;
27213;SDS011;14723;55.814;37.460;2022-07-10T11:23:35;7.55;;;4.15;;
27213;SDS011;14723;55.814;37.460;2022-07-10T11:26:55;7.28;;;4.15;;
27213;SDS011;14723;55.814;37.460;2022-07-10T11:30:04;5.15;;;4.65;;
27213;SDS011;14723;55.814;37.460;2022-07-10T11:33:09;5.32;;;4.63;;
27213;SDS011;14723;55.814;37.460;2022-07-10T11:36:18;14.85;;;5.45;;
27213;SDS011;14723;55.814;37.460;2022-07-10T11:39:23;8.35;;;5.82;;
27213;SDS011;14723;55.814;37.460;2022-07-10T11:42:30;6.72;;;3.88;;
27213;SDS011;14723;55.814;37.460;2022-07-10T11:45:52;6.45;;;4.75;;
27213;SDS011;14723;55.814;37.460;2022-07-10T11:49:02;6.55;;;4.53;;
27213;SDS011;14723;55.814;37.460;2022-07-10T11:52:10;5.55;;;4.00;;
27213;SDS011;14723;55.814;37.460;2022-07-10T11:55:16;8.88;;;4.30;;
27213;SDS011;14723;55.814;37.460;2022-07-10T11:58:21;5.03;;;3.95;;
27213;SDS011;14723;55.814;37.460;2022-07-10T12:01:27;4.60;;;3.80;;
27213;SDS011;14723;55.814;37.460;2022-07-10T12:04:35;5.30;;;3.72;;
27213;SDS011;14723;55.814;37.460;2022-07-10T12:07:43;5.50;;;3.78;;
27213;SDS011;14723;55.814;37.460;2022-07-10T12:10:48;11.48;;;4.40;;
27213;SDS011;14723;55.814;37.460;2022-07-10T12:13:54;7.63;;;3.85;;
27213;SDS011;14723;55.814;37.460;2022-07-10T12:17:13;4.82;;;3.75;;
27213;SDS011;14723;55.814;37.460;2022-07-10T12:20:18;5.55;;;3.90;;
27213;SDS011;14723;55.814;37.460;2022-07-10T12:23:27;7.15;;;3.90;;
27213;SDS011;14723;55.814;37.460;2022-07-10T12:26:33;9.48;;;5.32;;
27213;SDS011;14723;55.814;37.460;2022-07-10T12:29:38;5.55;;;4.50;;
27213;SDS011;14723;55.814;37.460;2022-07-10T12:32:44;7.28;;;4.60;;
27213;SDS011;14723;55.814;37.460;2022-07-10T12:35:50;6.20;;;4.43;;
27213;SDS011;14723;55.814;37.460;2022-07-10T12:38:58;8.30;;;4.55;;
27213;SDS011;14723;55.814;37.460;2022-07-10T12:42:04;7.20;;;4.20;;
27213;SDS011;14723;55.814;37.460;2022-07-10T12:45:10;8.48;;;4.55;;
27213;SDS011;14723;55.814;37.460;2022-07-10T12:48:21;5.17;;;4.67;;
27213;SDS011;14723;55.814;37.460;2022-07-10T12:51:26;5.53;;;4.95;;
27213;SDS011;14723;55.814;37.460;2022-07-10T12:55:11;6.20;;;4.22;;
27213;SDS011;14723;55.814;37.460;2022-07-10T12:58:16;7.85;;;4.45;;
27213;SDS011;14723;55.814;37.460;2022-07-10T13:01:21;9.53;;;4.33;;
27213;SDS011;14723;55.814;37.460;2022-07-10T13:04:27;8.37;;;4.97;;
27213;SDS011;14723;55.814;37.460;2022-07-10T13:07:33;8.70;;;4.73;;
27213;SDS011;14723;55.814;37.460;2022-07-10T13:10:41;7.75;;;4.40;;
27213;SDS011;14723;55.814;37.460;2022-07-10T13:13:47;4.63;;;4.22;;
27213;SDS011;14723;55.814;37.460;2022-07-10T13:16:52;5.47;;;4.10;;
27213;SDS011;14723;55.814;37.460;2022-07-10T13:19:57;4.73;;;4.23;;
27213;SDS011;14723;55.814;37.460;2022-07-10T13:23:03;6.97;;;4.20;;
27213;SDS011;14723;55.814;37.460;2022-07-10T13:26:11;4.68;;;4.10;;
27213;SDS011;14723;55.814;37.460;2022-07-10T13:29:16;7.65;;;4.00;;
27213;SDS011;14723;55.814;37.460;2022-07-10T13:32:21;7.63;;;4.13;;
27213;SDS011;14723;55.814;37.460;2022-07-10T13:35:31;8.02;;;4.15;;
27213;SDS011;14723;55.814;37.460;2022-07-10T13:38:36;9.13;;;3.80;;
27213;SDS011;14723;55.814;37.460;2022-07-10T13:44:50;7.80;;;4.65;;
27213;SDS011;14723;55.814;37.460;2022-07-10T13:47:57;7.57;;;4.35;;
27213;SDS011;14723;55.814;37.460;2022-07-10T13:51:02;6.43;;;4.15;;
27213;SDS011;14723;55.814;37.460;2022-07-10T13:54:08;6.38;;;4.10;;
27213;SDS011;14723;55.814;37.460;2022-07-10T13:57:13;5.30;;;3.70;;
27213;SDS011;14723;55.814;37.460;2022-07-10T14:00:21;8.38;;;4.15;;
27213;SDS011;14723;55.814;37.460;2022-07-10T14:03:26;9.27;;;4.18;;
27213;SDS011;14723;55.814;37.460;2022-07-10T14:06:32;6.70;;;4.40;;
27213;SDS011;14723;55.814;37.460;2022-07-10T14:09:38;9.93;;;4.15;;
27213;SDS011;14723;55.814;37.460;2022-07-10T14:12:43;9.30;;;4.18;;
27213;SDS011;14723;55.814;37.460;2022-07-10T14:15:51;5.80;;;3.75;;
27213;SDS011;14723;55.814;37.460;2022-07-10T14:18:57;8.48;;;4.55;;
27213;SDS011;14723;55.814;37.460;2022-07-10T14:22:02;6.40;;;4.43;;
27213;SDS011;14723;55.814;37.460;2022-07-10T14:25:07;7.60;;;4.22;;
27213;SDS011;14723;55.814;37.460;2022-07-10T14:28:13;6.38;;;4.80;;
27213;SDS011;14723;55.814;37.460;2022-07-10T14:31:21;9.98;;;4.18;;
27213;SDS011;14723;55.814;37.460;2022-07-10T14:34:26;8.00;;;4.13;;
27213;SDS011;14723;55.814;37.460;2022-07-10T14:37:32;10.77;;;4.47;;
27213;SDS011;14723;55.814;37.460;2022-07-10T14:40:37;8.45;;;5.15;;
27213;SDS011;14723;55.814;37.460;2022-07-10T14:43:42;11.88;;;3.85;;
27213;SDS011;14723;55.814;37.460;2022-07-10T14:46:50;22.10;;;3.58;;
27213;SDS011;14723;55.814;37.460;2022-07-10T14:53:00;12.07;;;2.60;;
27213;SDS011;14723;55.814;37.460;2022-07-10T14:56:07;9.32;;;2.50;;
27213;SDS011;14723;55.814;37.460;2022-07-10T14:59:12;11.20;;;2.50;;
27213;SDS011;14723;55.814;37.460;2022-07-10T15:02:20;13.43;;;3.00;;
27213;SDS011;14723;55.814;37.460;2022-07-10T15:05:26;6.38;;;2.92;;
27213;SDS011;14723;55.814;37.460;2022-07-10T15:08:31;11.10;;;4.10;;
27213;SDS011;14723;55.814;37.460;2022-07-10T15:11:36;6.57;;;2.90;;
27213;SDS011;14723;55.814;37.460;2022-07-10T15:14:41;10.05;;;3.30;;
27213;SDS011;14723;55.814;37.460;2022-07-10T15:17:49;10.77;;;3.55;;
27213;SDS011;14723;55.814;37.460;2022-07-10T15:20:55;8.75;;;3.47;;
27213;SDS011;14723;55.814;37.460;2022-07-10T15:24:00;7.38;;;3.70;;
27213;SDS011;14723;55.814;37.460;2022-07-10T15:27:05;9.88;;;3.13;;
27213;SDS011;14723;55.814;37.460;2022-07-10T15:30:10;7.75;;;3.22;;
27213;SDS011;14723;55.814;37.460;2022-07-10T15:33:19;11.60;;;4.50;;
27213;SDS011;14723;55.814;37.460;2022-07-10T15:36:24;7.97;;;3.88;;
27213;SDS011;14723;55.814;37.460;2022-07-10T15:39:29;13.82;;;5.43;;
27213;SDS011;14723;55.814;37.460;2022-07-10T15:42:43;5.28;;;3.63;;
27213;SDS011;14723;55.814;37.460;2022-07-10T15:45:48;5.57;;;3.72;;
27213;SDS011;14723;55.814;37.460;2022-07-10T15:48:56;8.10;;;4.05;;
27213;SDS011;14723;55.814;37.460;2022-07-10T15:52:01;11.80;;;4.03;;
27213;SDS011;14723;55.814;37.460;2022-07-10T15:55:07;11.25;;;4.78;;
27213;SDS011;14723;55.814;37.460;2022-07-10T15:58:12;13.73;;;4.68;;
27213;SDS011;14723;55.814;37.460;2022-07-10T16:01:18;11.55;;;4.28;;
27213;SDS011;14723;55.814;37.460;2022-07-10T16:04:26;9.07;;;4.45;;
27213;SDS011;14723;55.814;37.460;2022-07-10T16:07:31;12.05;;;5.30;;
27213;SDS011;14723;55.814;37.460;2022-07-10T16:10:37;14.45;;;6.20;;
27213;SDS011;14723;55.814;37.460;2022-07-10T16:13:42;16.38;;;6.10;;
27213;SDS011;14723;55.814;37.460;2022-07-10T16:16:47;11.48;;;5.63;;
27213;SDS011;14723;55.814;37.460;2022-07-10T16:19:56;14.75;;;6.75;;
27213;SDS011;14723;55.814;37.460;2022-07-10T16:23:01;12.30;;;5.70;;
27213;SDS011;14723;55.814;37.460;2022-07-10T16:26:06;12.95;;;5.10;;
27213;SDS011;14723;55.814;37.460;2022-07-10T16:29:13;13.48;;;5.18;;
27213;SDS011;14723;55.814;37.460;2022-07-10T16:32:19;14.70;;;6.85;;
27213;SDS011;14723;55.814;37.460;2022-07-10T16:35:27;9.65;;;5.22;;
27213;SDS011;14723;55.814;37.460;2022-07-10T16:38:32;8.52;;;5.07;;
27213;SDS011;14723;55.814;37.460;2022-07-10T16:41:37;12.27;;;5.03;;
27213;SDS011;14723;55.814;37.460;2022-07-10T16:44:43;9.57;;;5.22;;
27213;SDS011;14723;55.814;37.460;2022-07-10T16:47:48;9.98;;;6.15;;
27213;SDS011;14723;55.814;37.460;2022-07-10T16:50:57;13.25;;;7.35;;
27213;SDS011;14723;55.814;37.460;2022-07-10T16:54:03;8.43;;;5.95;;
27213;SDS011;14723;55.814;37.460;2022-07-10T16:57:18;10.13;;;6.07;;
27213;SDS011;14723;55.814;37.460;2022-07-10T17:00:23;15.18;;;7.47;;
27213;SDS011;14723;55.814;37.460;2022-07-10T17:03:29;12.70;;;6.05;;
27213;SDS011;14723;55.814;37.460;2022-07-10T17:06:37;15.77;;;6.82;;
27213;SDS011;14723;55.814;37.460;2022-07-10T17:09:42;10.68;;;5.88;;
27213;SDS011;14723;55.814;37.460;2022-07-10T17:12:47;8.73;;;4.90;;
27213;SDS011;14723;55.814;37.460;2022-07-10T17:15:54;12.75;;;5.20;;
27213;SDS011;14723;55.814;37.460;2022-07-10T17:18:59;9.32;;;4.90;;
27213;SDS011;14723;55.814;37.460;2022-07-10T17:22:07;10.38;;;4.85;;
27213;SDS011;14723;55.814;37.460;2022-07-10T17:25:14;12.10;;;4.70;;
27213;SDS011;14723;55.814;37.460;2022-07-10T17:28:19;13.85;;;6.07;;
27213;SDS011;14723;55.814;37.460;2022-07-10T17:31:24;11.45;;;5.38;;
27213;SDS011;14723;55.814;37.460;2022-07-10T17:34:29;15.48;;;6.35;;
27213;SDS011;14723;55.814;37.460;2022-07-10T17:37:37;16.58;;;6.80;;
27213;SDS011;14723;55.814;37.460;2022-07-10T17:40:43;13.25;;;6.82;;
27213;SDS011;14723;55.814;37.460;2022-07-10T17:43:48;14.75;;;7.22;;
27213;SDS011;14723;55.814;37.460;2022-07-10T17:46:54;14.55;;;6.07;;
27213;SDS011;14723;55.814;37.460;2022-07-10T17:49:59;16.20;;;7.03;;
27213;SDS011;14723;55.814;37.460;2022-07-10T17:53:08;13.05;;;7.05;;
27213;SDS011;14723;55.814;37.460;2022-07-10T17:56:13;12.25;;;7.05;;
27213;SDS011;14723;55.814;37.460;2022-07-10T17:59:19;14.15;;;7.18;;
27213;SDS011;14723;55.814;37.460;2022-07-10T18:02:24;14.07;;;7.50;;
27213;SDS011;14723;55.814;37.460;2022-07-10T18:05:29;12.18;;;6.28;;
27213;SDS011;14723;55.814;37.460;2022-07-10T18:08:37;13.15;;;7.22;;
27213;SDS011;14723;55.814;37.460;2022-07-10T18:11:42;18.40;;;7.60;;
27213;SDS011;14723;55.814;37.460;2022-07-10T18:14:47;13.43;;;6.60;;
27213;SDS011;14723;55.814;37.460;2022-07-10T18:17:53;13.50;;;7.30;;
27213;SDS011;14723;55.814;37.460;2022-07-10T18:20:58;13.18;;;7.90;;
27213;SDS011;14723;55.814;37.460;2022-07-10T18:24:06;13.20;;;8.27;;
27213;SDS011;14723;55.814;37.460;2022-07-10T18:27:12;15.98;;;8.68;;
27213;SDS011;14723;55.814;37.460;2022-07-10T18:30:18;14.82;;;8.93;;
27213;SDS011;14723;55.814;37.460;2022-07-10T18:33:23;11.65;;;7.35;;